Murphy City, Minnesota
Current Conditions -  °F | °C
As of 10:12 AM on Monday 26 Jan 2015 (Local Time) from KELO Reporting Station
Overcast Overcast  
Wind Chill: 14°   Ceiling: 1800
Heat Index: 21°   Visibility: 10mi
Dew Point: 18°   Wind: 6mph
Humidity: 86%   Direction: 180°S
Pressure: 29.61"   Gusts: NA
Location:  47.7823°N, 91.1739°W
Report Text: KELO 261612Z AUTO 18005KT 10SM BKN018 OVC023 M06/M08 A2961 RMK AO2
Loading
Personal Weather Stations






























Interactive Weather Map New forecast layout! Learn more

10-Day Weather Forecast

Advertisements
Track Severe Weather on mobile